Time;durP1;ratioP1;P1;durP2;ratioP2;P2;SDS_P1;SDS_P2;PMS_P1;PMS_P2;Temp;Humidity;BMP_temperature;BMP_pressure;BME280_temperature;BME280_humidity;BME280_pressure;Samples;Min_cycle;Max_cycle;Signal;HPM_P1;HPM_P2
2021/04/07 05:50:23;;;;;;;0.20;0.15;;;18.20;59.00;;;;;;5067312;28;20412;-57
2021/04/07 05:52:50;;;;;;;0.85;0.13;;;18.50;58.40;;;;;;5065814;28;20057;-57
2021/04/07 05:55:17;;;;;;;2.25;0.20;;;18.70;58.00;;;;;;5066587;27;20040;-58
2021/04/07 05:57:42;;;;;;;0.60;0.20;;;18.70;57.60;;;;;;5065072;28;20124;-57
2021/04/07 06:00:08;;;;;;;0.35;0.22;;;18.80;57.50;;;;;;5069132;28;20112;-57
2021/04/07 06:02:34;;;;;;;0.68;0.22;;;19.00;57.30;;;;;;5070871;28;20111;-59
2021/04/07 06:04:59;;;;;;;0.30;0.15;;;19.00;57.10;;;;;;5071430;28;20111;-59
2021/04/07 06:07:25;;;;;;;1.55;0.20;;;19.00;57.50;;;;;;5067968;28;20032;-59
2021/04/07 06:09:50;;;;;;;1.65;0.47;;;19.00;57.40;;;;;;5084135;28;20016;-61
2021/04/07 06:12:16;;;;;;;1.65;0.30;;;19.00;57.60;;;;;;5061042;28;20459;-55
2021/04/07 06:14:41;;;;;;;2.13;0.40;;;19.00;57.80;;;;;;5065866;28;20087;-57
2021/04/07 06:17:07;;;;;;;0.50;0.30;;;19.00;58.50;;;;;;5064238;28;20118;-56
2021/04/07 06:19:33;;;;;;;2.60;0.45;;;19.00;58.00;;;;;;5063536;28;20051;-58
2021/04/07 06:21:58;;;;;;;0.60;0.40;;;18.90;58.00;;;;;;5063266;28;20017;-56
2021/04/07 06:24:24;;;;;;;0.98;0.50;;;18.90;58.10;;;;;;5067398;28;20405;-59
2021/04/07 06:26:49;;;;;;;0.63;0.30;;;18.80;58.40;;;;;;5061135;28;20060;-58
2021/04/07 06:29:15;;;;;;;0.38;0.38;;;18.90;59.10;;;;;;5064684;28;20078;-59
2021/04/07 06:31:40;;;;;;;0.75;0.30;;;18.90;58.40;;;;;;5055552;28;20028;-58
2021/04/07 06:34:06;;;;;;;0.40;0.40;;;18.80;58.30;;;;;;5064544;28;20031;-55
2021/04/07 06:36:31;;;;;;;1.48;0.45;;;18.80;58.40;;;;;;5068252;28;20502;-54
2021/04/07 06:38:57;;;;;;;1.77;0.50;;;18.70;58.50;;;;;;5067257;28;20087;-55
2021/04/07 06:41:22;;;;;;;0.40;0.40;;;18.70;58.60;;;;;;5065400;28;20028;-36
2021/04/07 06:43:49;;;;;;;8.68;1.17;;;18.70;58.30;;;;;;5061171;28;20448;-57
2021/04/07 06:46:19;;;;;;;1.75;0.30;;;18.60;58.30;;;;;;5082291;28;20041;-54
2021/04/07 06:48:45;;;;;;;0.35;0.30;;;18.70;57.60;;;;;;5098643;27;20045;-50
2021/04/07 06:51:11;;;;;;;1.63;0.32;;;18.80;57.30;;;;;;5088911;28;20048;-57
2021/04/07 06:53:36;;;;;;;0.57;0.30;;;18.80;57.00;;;;;;5047715;28;20028;-51
2021/04/07 06:56:02;;;;;;;0.35;0.35;;;18.90;56.80;;;;;;5068253;28;20086;-53
2021/04/07 06:58:27;;;;;;;0.38;0.30;;;19.00;56.50;;;;;;5052560;28;20040;-51
2021/04/07 07:00:53;;;;;;;3.70;0.32;;;19.00;56.40;;;;;;5053973;28;20032;-49
2021/04/07 07:03:19;;;;;;;0.60;0.47;;;19.10;56.20;;;;;;5053333;28;20490;-51
2021/04/07 07:05:49;;;;;;;0.52;0.52;;;19.20;56.70;;;;;;5057619;28;20101;-57
2021/04/07 07:08:16;;;;;;;1.90;0.52;;;19.20;56.20;;;;;;5048297;28;20080;-45
2021/04/07 07:10:44;;;;;;;0.40;0.30;;;19.30;56.50;;;;;;5047977;28;20071;-60
2021/04/07 07:13:19;;;;;;;0.80;0.52;;;19.20;56.40;;;;;;5053256;28;20506;-55
2021/04/07 07:15:45;;;;;;;1.20;0.38;;;19.30;56.10;;;;;;5054326;28;20053;-60
2021/04/07 07:18:22;;;;;;;0.20;0.20;;;19.20;56.20;;;;;;5059110;28;20037;-57
2021/04/07 07:20:47;;;;;;;0.95;0.30;;;19.20;56.00;;;;;;5046982;28;20036;-55
2021/04/07 07:23:27;;;;;;;1.35;0.45;;;19.20;55.90;;;;;;5041991;28;20053;-63
2021/04/07 07:26:00;;;;;;;0.73;0.50;;;19.30;55.60;;;;;;5045020;28;20053;-61
2021/04/07 07:28:26;;;;;;;0.60;0.50;;;19.30;56.70;;;;;;5080795;28;20078;-60
2021/04/07 07:30:52;;;;;;;0.47;0.43;;;19.20;56.40;;;;;;5050096;28;20064;-58
2021/04/07 07:33:19;;;;;;;0.60;0.60;;;19.30;56.90;;;;;;5051560;28;20520;-61
2021/04/07 07:35:46;;;;;;;0.85;0.52;;;19.30;56.90;;;;;;5046536;28;20079;-55
2021/04/07 07:38:12;;;;;;;0.70;0.43;;;19.40;57.00;;;;;;5049079;28;20120;-61
2021/04/07 07:40:38;;;;;;;0.50;0.50;;;19.50;56.00;;;;;;5064691;28;20521;-61
2021/04/07 07:43:04;;;;;;;0.50;0.50;;;19.80;55.70;;;;;;5050096;28;20037;-63
2021/04/07 07:45:35;;;;;;;0.30;0.30;;;19.80;55.10;;;;;;5050178;28;20052;-63
2021/04/07 07:48:12;;;;;;;0.57;0.30;;;20.00;54.50;;;;;;5245230;22;20050;-64
2021/04/07 07:50:40;;;;;;;1.10;0.43;;;20.20;53.70;;;;;;5069899;23;20059;-56
2021/04/07 07:53:22;;;;;;;3.85;3.38;;;20.60;52.40;;;;;;5040739;28;20048;-61
2021/04/07 07:55:52;;;;;;;12.77;9.00;;;20.80;51.90;;;;;;5044358;28;20049;-56
2021/04/07 07:58:22;;;;;;;26.95;17.38;;;20.90;51.80;;;;;;5041466;28;20068;-54
2021/04/07 08:00:48;;;;;;;17.55;13.82;;;21.10;51.30;;;;;;5042671;28;20090;-57
2021/04/07 08:03:14;;;;;;;25.75;17.73;;;21.10;51.10;;;;;;5043937;28;20056;-57
2021/04/07 08:05:41;;;;;;;31.38;21.67;;;20.80;51.60;;;;;;5046909;28;20053;-53
2021/04/07 08:08:07;;;;;;;23.17;15.40;;;20.70;52.00;;;;;;5039496;28;20056;-61
2021/04/07 08:10:33;;;;;;;21.85;15.65;;;20.60;52.00;;;;;;5042453;28;20092;-51
2021/04/07 08:13:02;;;;;;;21.00;15.02;;;20.60;52.10;;;;;;5041969;28;20042;-56
2021/04/07 08:15:29;;;;;;;27.20;17.10;;;20.60;52.30;;;;;;5043552;28;20121;-58
2021/04/07 08:17:55;;;;;;;25.58;17.48;;;20.50;52.20;;;;;;5040982;28;20068;-56
2021/04/07 08:20:20;;;;;;;27.90;17.95;;;20.40;52.80;;;;;;5040736;28;20049;-55
2021/04/07 08:22:46;;;;;;;23.65;16.58;;;20.30;53.00;;;;;;5024057;28;20530;-55
2021/04/07 08:25:13;;;;;;;24.73;16.92;;;20.30;52.70;;;;;;5044704;28;20037;-55
2021/04/07 08:27:38;;;;;;;24.60;17.27;;;20.30;52.80;;;;;;5023339;28;20034;-58
2021/04/07 08:30:05;;;;;;;22.95;16.73;;;20.20;52.70;;;;;;5021990;28;20041;-59
2021/04/07 08:32:30;;;;;;;31.55;19.27;;;20.20;53.40;;;;;;5042218;28;20486;-43
2021/04/07 08:34:56;;;;;;;30.50;19.80;;;20.20;53.30;;;;;;5039553;28;20199;-55
2021/04/07 08:37:25;;;;;;;30.65;20.27;;;20.30;53.40;;;;;;5041525;28;20045;-56
2021/04/07 08:39:51;;;;;;;24.52;17.33;;;20.30;53.10;;;;;;5040946;28;20076;-57
2021/04/07 08:42:17;;;;;;;26.50;19.38;;;20.30;52.80;;;;;;5043312;28;20448;-57
2021/04/07 08:44:46;;;;;;;29.35;19.50;;;20.30;53.40;;;;;;5036878;28;20041;-54
2021/04/07 08:47:44;;;;;;;25.08;16.98;;;20.20;53.30;;;;;;5040668;28;20037;-54
2021/04/07 08:50:14;;;;;;;22.92;16.55;;;20.20;53.10;;;;;;5038027;28;20079;-56
2021/04/07 08:52:43;;;;;;;27.88;18.80;;;20.20;53.20;;;;;;5040864;28;20044;-54
2021/04/07 08:55:23;;;;;;;28.45;18.02;;;20.20;53.20;;;;;;5038760;28;21485;-56
2021/04/07 08:57:58;;;;;;;29.58;19.20;;;20.30;53.20;;;;;;5038211;28;20052;-53
2021/04/07 09:00:25;;;;;;;34.30;21.02;;;20.30;53.30;;;;;;5039867;28;20127;-51
2021/04/07 09:02:52;;;;;;;34.38;21.45;;;20.20;53.70;;;;;;5044474;28;20068;-50
2021/04/07 09:05:27;;;;;;;28.98;19.40;;;20.30;53.80;;;;;;5042315;28;20045;-56
2021/04/07 09:07:53;;;;;;;28.77;20.33;;;20.20;53.60;;;;;;5032894;28;20041;-50
2021/04/07 09:10:20;;;;;;;34.20;19.42;;;20.20;53.80;;;;;;5040523;28;20731;-57
2021/04/07 09:12:47;;;;;;;30.70;18.35;;;20.30;53.80;;;;;;5043801;28;20049;-58
2021/04/07 09:15:21;;;;;;;26.35;17.45;;;20.30;53.90;;;;;;5046616;28;20094;-57
2021/04/07 09:17:51;;;;;;;26.85;16.25;;;20.40;53.40;;;;;;5046514;28;20041;-61
2021/04/07 09:20:41;;;;;;;28.60;18.20;;;20.40;53.60;;;;;;5043956;28;20049;-60
2021/04/07 09:23:10;;;;;;;26.80;16.83;;;20.40;53.70;;;;;;5047163;28;20044;-55
2021/04/07 09:25:36;;;;;;;22.65;15.82;;;20.40;53.60;;;;;;5042854;28;20120;-57
2021/04/07 09:28:08;;;;;;;19.77;13.50;;;20.50;53.40;;;;;;5041464;28;20063;-54
2021/04/07 09:30:47;;;;;;;16.33;10.98;;;20.50;56.20;;;;;;5038446;28;20060;-56
2021/04/07 09:33:22;;;;;;;14.45;10.50;;;20.60;56.90;;;;;;5037811;28;20510;-54
2021/04/07 09:35:55;;;;;;;19.98;13.23;;;20.60;56.30;;;;;;5040767;28;20391;-53
2021/04/07 09:38:21;;;;;;;19.25;13.20;;;20.50;55.10;;;;;;5042967;28;20052;-62
2021/04/07 09:40:46;;;;;;;17.23;11.77;;;20.50;55.00;;;;;;5041810;28;20044;-62
2021/04/07 09:43:12;;;;;;;17.48;12.50;;;20.40;56.30;;;;;;5040644;28;20045;-63
2021/04/07 09:45:38;;;;;;;21.33;13.90;;;20.40;56.10;;;;;;5047813;28;20045;-59
2021/04/07 09:48:04;;;;;;;17.83;13.10;;;20.30;56.10;;;;;;5043513;28;20716;-61
2021/04/07 09:50:30;;;;;;;25.67;13.30;;;20.20;56.30;;;;;;5042724;28;20592;-64
2021/04/07 09:52:56;;;;;;;19.55;12.02;;;20.20;56.50;;;;;;5042045;28;20131;-63
2021/04/07 09:55:22;;;;;;;16.05;11.57;;;20.20;56.80;;;;;;5049143;28;20067;-63
2021/04/07 09:58:14;;;;;;;22.67;13.15;;;20.20;56.50;;;;;;5045746;28;20422;-60
2021/04/07 10:00:40;;;;;;;14.77;11.43;;;20.30;56.30;;;;;;5044178;28;20045;-61
2021/04/07 10:03:15;;;;;;;20.55;12.35;;;20.30;56.50;;;;;;4691789;28;10000003;-54
2021/04/07 10:05:41;;;;;;;17.63;10.43;;;20.40;56.70;;;;;;5041945;28;20529;-60
2021/04/07 10:08:17;;;;;;;17.08;9.35;;;20.40;56.70;;;;;;5039754;28;20053;-59
2021/04/07 10:10:42;;;;;;;26.35;10.02;;;20.50;56.60;;;;;;5038164;28;20123;-61
2021/04/07 10:13:08;;;;;;;15.20;9.77;;;20.50;56.50;;;;;;5038798;28;20049;-59
2021/04/07 10:15:36;;;;;;;14.40;9.18;;;20.60;56.40;;;;;;5038206;28;20041;-59
2021/04/07 10:18:06;;;;;;;11.70;8.95;;;20.60;55.60;;;;;;5038421;28;20045;-57
2021/04/07 10:20:32;;;;;;;13.40;8.73;;;20.60;55.90;;;;;;5033763;28;20048;-57
2021/04/07 10:22:57;;;;;;;12.73;9.07;;;20.60;55.90;;;;;;5034815;28;20084;-58
2021/04/07 10:25:28;;;;;;;12.52;8.45;;;20.60;56.00;;;;;;5040082;28;20075;-58
2021/04/07 10:27:54;;;;;;;11.30;8.20;;;20.50;56.30;;;;;;5041307;28;20083;-57
2021/04/07 10:30:20;;;;;;;11.35;7.88;;;20.50;56.60;;;;;;5040032;28;20081;-58
2021/04/07 10:32:50;;;;;;;10.32;7.10;;;20.50;55.70;;;;;;5041482;28;20095;-59
2021/04/07 10:35:25;;;;;;;9.38;6.72;;;20.70;56.10;;;;;;5044609;28;20056;-58
2021/04/07 10:37:54;;;;;;;8.82;7.07;;;20.80;55.80;;;;;;5039700;28;20053;-53
2021/04/07 10:40:21;;;;;;;14.35;7.75;;;20.80;56.00;;;;;;5042856;28;20063;-58
2021/04/07 10:42:47;;;;;;;11.93;7.68;;;20.90;56.00;;;;;;5042698;28;20078;-57
2021/04/07 10:45:13;;;;;;;10.93;7.00;;;21.00;55.80;;;;;;5049063;28;20056;-55
2021/04/07 10:47:39;;;;;;;9.60;6.78;;;20.90;56.30;;;;;;5047638;28;20132;-52
2021/04/07 10:50:05;;;;;;;9.50;6.63;;;20.90;56.50;;;;;;5043803;28;20159;-56
2021/04/07 10:52:36;;;;;;;7.22;5.93;;;20.90;56.30;;;;;;5045290;28;20053;-56
2021/04/07 10:55:14;;;;;;;7.22;6.05;;;20.90;56.30;;;;;;5043478;28;20041;-56
2021/04/07 10:57:47;;;;;;;9.75;5.82;;;20.90;56.90;;;;;;5047167;28;20052;-56
2021/04/07 11:00:24;;;;;;;26.15;6.40;;;20.90;56.60;;;;;;5042014;28;20040;-56
2021/04/07 11:02:52;;;;;;;8.60;5.25;;;20.90;56.80;;;;;;5047152;28;20578;-57
2021/04/07 11:05:21;;;;;;;12.13;5.50;;;21.00;56.70;;;;;;5045252;28;20045;-57
2021/04/07 11:07:47;;;;;;;8.32;5.95;;;21.10;57.10;;;;;;5041196;28;20037;-56
2021/04/07 11:10:16;;;;;;;8.68;5.40;;;21.10;57.20;;;;;;5037561;28;20469;-55
2021/04/07 11:12:42;;;;;;;8.27;5.78;;;21.20;56.70;;;;;;5042693;28;20049;-55
2021/04/07 11:15:08;;;;;;;8.25;5.10;;;21.30;56.60;;;;;;5043079;28;20041;-56
2021/04/07 11:17:35;;;;;;;8.25;4.65;;;21.20;57.30;;;;;;5039351;28;20056;-55
2021/04/07 11:20:01;;;;;;;5.53;4.72;;;21.20;57.00;;;;;;5039856;28;20398;-60
2021/04/07 11:22:26;;;;;;;6.57;4.70;;;21.10;56.90;;;;;;5041521;28;20048;-52
2021/04/07 11:24:53;;;;;;;7.13;5.20;;;21.10;56.90;;;;;;5043423;28;20083;-50
2021/04/07 11:27:18;;;;;;;5.53;4.20;;;21.10;56.80;;;;;;5043785;28;20069;-54
2021/04/07 11:29:44;;;;;;;5.20;4.40;;;21.10;56.70;;;;;;5038401;28;20049;-57
2021/04/07 11:32:10;;;;;;;7.22;4.60;;;21.20;56.50;;;;;;5042409;28;20044;-53
2021/04/07 11:34:51;;;;;;;6.55;4.20;;;21.20;56.20;;;;;;5041941;28;20418;-55
2021/04/07 11:39:56;;;;;;;8.50;4.30;;;21.10;56.20;;;;;;5042193;28;20068;-54
2021/04/07 11:42:28;;;;;;;6.88;4.72;;;21.20;56.10;;;;;;5036870;28;20261;-56
2021/04/07 11:44:54;;;;;;;5.95;4.20;;;21.20;56.10;;;;;;5039841;28;20085;-56
2021/04/07 11:47:19;;;;;;;6.53;4.05;;;21.20;56.00;;;;;;5037504;28;20120;-57
2021/04/07 11:49:45;;;;;;;9.20;4.65;;;21.20;56.00;;;;;;5040537;28;20048;-57
2021/04/07 11:52:13;;;;;;;5.13;4.35;;;21.20;55.90;;;;;;5037862;28;20413;-56
2021/04/07 11:54:38;;;;;;;6.10;4.32;;;21.20;55.80;;;;;;5039549;28;20072;-56
2021/04/07 11:57:04;;;;;;;5.70;4.47;;;21.20;55.80;;;;;;5039190;28;20130;-55
2021/04/07 11:59:30;;;;;;;4.85;4.32;;;21.20;55.80;;;;;;5039562;28;20182;-58
2021/04/07 12:01:57;;;;;;;6.30;5.00;;;21.20;55.60;;;;;;5043096;28;20804;-59
2021/04/07 12:04:25;;;;;;;6.07;4.10;;;21.20;55.70;;;;;;5040559;28;20659;-49
2021/04/07 12:06:51;;;;;;;8.38;3.90;;;21.20;55.70;;;;;;5042155;28;20033;-59
2021/04/07 12:09:16;;;;;;;4.13;3.55;;;21.20;55.80;;;;;;5041926;28;20048;-58
2021/04/07 12:11:42;;;;;;;6.20;4.03;;;21.30;55.40;;;;;;5044164;28;20091;-63
2021/04/07 12:14:08;;;;;;;4.38;3.72;;;21.30;55.50;;;;;;5041166;28;20041;-61
2021/04/07 12:16:35;;;;;;;4.93;4.45;;;21.30;55.30;;;;;;5042974;28;20482;-61
2021/04/07 12:19:00;;;;;;;4.32;3.85;;;21.30;56.00;;;;;;5041763;28;20064;-56
2021/04/07 12:21:26;;;;;;;6.68;3.53;;;21.30;55.30;;;;;;5043874;28;20073;-63
2021/04/07 12:23:52;;;;;;;6.53;3.90;;;21.30;55.20;;;;;;5041566;28;20506;-54
2021/04/07 12:26:17;;;;;;;5.05;3.58;;;21.30;55.20;;;;;;5041572;28;20049;-59
2021/04/07 12:28:44;;;;;;;3.30;3.00;;;21.20;55.40;;;;;;5041827;28;20040;-54
2021/04/07 12:31:12;;;;;;;3.80;3.38;;;21.20;55.40;;;;;;5037193;28;20040;-56
2021/04/07 12:33:37;;;;;;;3.38;3.05;;;21.20;55.30;;;;;;5037653;28;20510;-52
2021/04/07 12:36:05;;;;;;;4.38;3.45;;;21.30;55.10;;;;;;5043743;28;20055;-48
2021/04/07 12:38:32;;;;;;;3.65;3.10;;;21.30;55.10;;;;;;5041370;28;20071;-57
2021/04/07 12:41:00;;;;;;;3.30;3.00;;;21.30;54.90;;;;;;5038079;28;20036;-51
2021/04/07 12:43:25;;;;;;;3.42;3.10;;;21.40;54.90;;;;;;5040032;28;20048;-57
2021/04/07 12:45:51;;;;;;;2.85;2.65;;;21.40;54.70;;;;;;5042796;28;20734;-56
2021/04/07 12:48:19;;;;;;;3.35;3.08;;;21.40;54.60;;;;;;5041453;28;20058;-52
2021/04/07 12:50:44;;;;;;;3.97;3.22;;;21.30;54.70;;;;;;5044233;28;20056;-57
2021/04/07 12:53:10;;;;;;;4.63;3.20;;;21.30;54.80;;;;;;5040204;28;20064;-48
2021/04/07 12:55:36;;;;;;;2.85;2.65;;;21.30;54.70;;;;;;5042781;28;20053;-47
2021/04/07 12:58:01;;;;;;;3.53;3.13;;;21.30;54.80;;;;;;5042204;28;20045;-55
2021/04/07 13:00:28;;;;;;;3.15;2.88;;;21.30;54.90;;;;;;5042179;28;20190;-54
2021/04/07 13:02:53;;;;;;;2.67;2.47;;;21.30;55.00;;;;;;5040484;28;20063;-55
2021/04/07 13:05:19;;;;;;;3.33;2.90;;;21.20;54.90;;;;;;5040850;28;20490;-49
2021/04/07 13:07:45;;;;;;;3.30;3.05;;;21.20;54.70;;;;;;5042209;28;20728;-52
2021/04/07 13:10:11;;;;;;;2.75;2.55;;;21.20;54.70;;;;;;5041684;28;20133;-52
2021/04/07 13:12:37;;;;;;;2.97;2.47;;;21.20;54.70;;;;;;5043312;28;20045;-55
2021/04/07 13:15:03;;;;;;;2.80;2.45;;;21.20;54.70;;;;;;5043713;28;20050;-48
2021/04/07 13:17:28;;;;;;;2.40;2.25;;;21.20;54.80;;;;;;5040691;28;20049;-53
2021/04/07 13:19:56;;;;;;;2.60;2.40;;;21.20;54.70;;;;;;5038092;28;20434;-58
2021/04/07 13:22:22;;;;;;;3.85;2.88;;;21.20;54.80;;;;;;5038343;28;20045;-57
2021/04/07 13:24:47;;;;;;;2.80;2.47;;;21.20;54.80;;;;;;5043155;28;20098;-57
2021/04/07 13:27:13;;;;;;;2.40;2.30;;;21.20;54.60;;;;;;5041793;28;20064;-57
2021/04/07 13:29:39;;;;;;;2.55;2.25;;;21.30;54.40;;;;;;5040158;28;20192;-51
2021/04/07 13:32:06;;;;;;;2.20;2.08;;;21.30;54.50;;;;;;5040000;28;20044;-58
2021/04/07 13:35:18;;;;;;;2.30;2.13;;;21.30;54.50;;;;;;5041894;28;20052;-55
2021/04/07 13:37:24;;;;;;;2.65;2.03;;;21.40;54.40;;;;;;5029382;28;20049;-56
2021/04/07 13:40:00;;;;;;;3.17;2.38;;;21.30;54.30;;;;;;5042492;28;20053;-55
2021/04/07 13:45:10;;;;;;;3.17;2.25;;;21.40;54.30;;;;;;5047887;28;20048;-56
2021/04/07 13:47:37;;;;;;;2.95;2.15;;;21.40;54.30;;;;;;5044225;28;20053;-56
2021/04/07 13:50:04;;;;;;;2.67;2.25;;;21.30;54.30;;;;;;5044793;28;20072;-58
2021/04/07 13:52:29;;;;;;;2.10;1.90;;;21.30;54.30;;;;;;5042292;28;20049;-60
2021/04/07 13:54:56;;;;;;;2.25;2.13;;;21.30;53.70;;;;;;5045480;28;20033;-59
2021/04/07 13:57:28;;;;;;;1.92;1.80;;;21.30;53.70;;;;;;5043882;28;20099;-58
2021/04/07 13:59:58;;;;;;;1.85;1.75;;;21.30;54.20;;;;;;5047930;28;20048;-57
2021/04/07 14:02:24;;;;;;;2.45;2.25;;;21.30;53.60;;;;;;5048126;28;20568;-58
2021/04/07 14:04:50;;;;;;;2.33;2.00;;;21.30;53.70;;;;;;5044247;28;20120;-59
2021/04/07 14:07:16;;;;;;;2.28;1.85;;;21.30;53.70;;;;;;5047474;28;20041;-58
2021/04/07 14:09:48;;;;;;;2.08;1.90;;;21.30;53.70;;;;;;5039162;28;20137;-53
2021/04/07 14:12:17;;;;;;;1.90;1.70;;;21.40;53.80;;;;;;5043872;28;20049;-55
2021/04/07 14:14:46;;;;;;;2.08;1.88;;;21.40;53.90;;;;;;5041107;28;20049;-56
2021/04/07 14:17:12;;;;;;;1.95;1.85;;;21.30;53.70;;;;;;5038933;28;20071;-58
2021/04/07 14:19:37;;;;;;;1.67;1.58;;;21.30;53.80;;;;;;5042167;28;20435;-57
2021/04/07 14:22:03;;;;;;;1.95;1.85;;;21.30;53.90;;;;;;5041380;28;20120;-58
2021/04/07 14:24:29;;;;;;;1.58;1.42;;;21.30;53.80;;;;;;5043411;28;20053;-57
2021/04/07 14:26:55;;;;;;;2.13;1.40;;;21.40;53.60;;;;;;5045185;28;20383;-56
2021/04/07 14:29:20;;;;;;;1.50;1.40;;;21.40;53.70;;;;;;5044707;28;20069;-58
2021/04/07 14:31:47;;;;;;;1.95;1.40;;;21.40;53.90;;;;;;5045191;28;20044;-56
2021/04/07 14:34:14;;;;;;;1.55;1.33;;;21.30;54.00;;;;;;5045773;28;20055;-56
2021/04/07 14:36:43;;;;;;;1.73;1.52;;;21.40;54.10;;;;;;5045347;28;20127;-56
2021/04/07 14:39:10;;;;;;;1.90;1.80;;;21.40;54.30;;;;;;5043818;28;20056;-59
2021/04/07 14:41:37;;;;;;;1.55;1.45;;;21.40;54.40;;;;;;5044640;28;20049;-49
2021/04/07 14:44:04;;;;;;;1.45;1.33;;;21.40;54.40;;;;;;5044076;28;20140;-53
2021/04/07 14:46:29;;;;;;;1.70;1.40;;;21.40;54.40;;;;;;5041573;28;20422;-56
2021/04/07 14:48:56;;;;;;;2.15;1.60;;;21.40;54.40;;;;;;5042898;28;20451;-56
2021/04/07 14:51:26;;;;;;;1.15;1.10;;;21.40;54.50;;;;;;5045391;28;20041;-57
2021/04/07 14:54:02;;;;;;;2.22;1.55;;;21.50;54.50;;;;;;5043485;28;20045;-58
2021/04/07 14:56:28;;;;;;;2.78;1.30;;;21.50;54.40;;;;;;5043720;28;20037;-54
2021/04/07 14:58:53;;;;;;;1.90;1.80;;;21.50;55.00;;;;;;5044662;28;20106;-54
2021/04/07 15:01:19;;;;;;;2.05;1.40;;;21.40;54.40;;;;;;5046800;28;20048;-55
2021/04/07 15:03:45;;;;;;;1.70;1.60;;;21.50;54.30;;;;;;5046328;28;20038;-55
2021/04/07 15:06:12;;;;;;;1.90;1.50;;;21.50;54.00;;;;;;5049848;28;20053;-54
2021/04/07 15:08:39;;;;;;;1.48;1.38;;;21.60;53.70;;;;;;5045761;28;20048;-54
2021/04/07 15:11:05;;;;;;;2.85;1.70;;;21.60;53.80;;;;;;5044614;28;20057;-54
2021/04/07 15:13:30;;;;;;;1.52;1.42;;;21.60;53.80;;;;;;5042754;28;20099;-56
2021/04/07 15:15:56;;;;;;;1.67;1.55;;;21.60;53.80;;;;;;5044012;28;20048;-57
2021/04/07 15:18:21;;;;;;;1.42;1.33;;;21.60;53.70;;;;;;5041436;28;20057;-55
2021/04/07 15:20:47;;;;;;;2.25;1.33;;;21.60;53.60;;;;;;5044545;28;20037;-55
2021/04/07 15:23:13;;;;;;;1.90;1.75;;;21.50;53.70;;;;;;5042766;28;20533;-55
2021/04/07 15:25:41;;;;;;;1.95;1.80;;;21.50;53.90;;;;;;5043220;28;20075;-57
2021/04/07 15:30:36;;;;;;;1.30;1.20;;;21.50;53.60;;;;;;5042855;28;20033;-59
2021/04/07 15:33:01;;;;;;;1.48;1.25;;;21.40;53.60;;;;;;5035734;28;20056;-56
2021/04/07 15:35:27;;;;;;;1.42;1.30;;;21.30;53.70;;;;;;5041153;28;20064;-60
2021/04/07 15:37:54;;;;;;;1.50;1.40;;;21.40;53.70;;;;;;5040990;28;20577;-60
2021/04/07 15:40:20;;;;;;;1.40;1.30;;;21.40;53.50;;;;;;5039661;28;20048;-60
2021/04/07 15:42:46;;;;;;;1.10;1.00;;;21.40;53.60;;;;;;5041287;28;20085;-61
2021/04/07 15:45:12;;;;;;;1.20;1.15;;;21.40;53.60;;;;;;5041278;28;20124;-60
2021/04/07 15:47:37;;;;;;;1.13;1.02;;;21.40;53.40;;;;;;5047195;28;20132;-49
2021/04/07 15:50:04;;;;;;;3.75;1.10;;;21.40;53.50;;;;;;5043973;28;20392;-60
2021/04/07 15:52:30;;;;;;;1.20;1.10;;;21.40;53.40;;;;;;5044985;28;20056;-58
2021/04/07 15:54:56;;;;;;;1.10;1.10;;;21.30;53.70;;;;;;5046034;28;20055;-55
2021/04/07 15:57:28;;;;;;;1.73;1.00;;;21.20;53.80;;;;;;5048295;28;20049;-57
2021/04/07 15:59:57;;;;;;;1.17;1.10;;;21.20;53.60;;;;;;5047737;28;20063;-56
2021/04/07 16:02:23;;;;;;;1.30;1.20;;;21.20;53.70;;;;;;5046279;28;20033;-55
2021/04/07 16:04:48;;;;;;;2.85;1.17;;;21.20;53.70;;;;;;5043575;28;20402;-56
2021/04/07 16:07:14;;;;;;;1.13;1.02;;;21.10;53.90;;;;;;5045644;28;20036;-57
2021/04/07 16:09:41;;;;;;;1.70;1.10;;;21.10;53.80;;;;;;5045567;28;20041;-55
2021/04/07 16:12:07;;;;;;;1.63;0.90;;;21.00;53.80;;;;;;5048157;28;20049;-37
2021/04/07 16:14:33;;;;;;;0.82;0.80;;;21.00;53.60;;;;;;5045610;28;20399;-56
2021/04/07 16:17:01;;;;;;;1.38;1.27;;;21.10;53.40;;;;;;5043150;28;20044;-57
2021/04/07 16:19:27;;;;;;;1.65;1.13;;;21.10;53.40;;;;;;5044457;28;20064;-52
2021/04/07 16:21:53;;;;;;;0.93;0.93;;;21.10;53.30;;;;;;5040991;28;20147;-50
2021/04/07 16:24:18;;;;;;;1.23;0.70;;;21.10;53.40;;;;;;5040888;28;20041;-52
2021/04/07 16:26:44;;;;;;;1.00;1.00;;;21.00;53.50;;;;;;5047428;28;20052;-38
2021/04/07 16:29:09;;;;;;;0.77;0.77;;;21.00;53.60;;;;;;5045549;28;20454;-51
2021/04/07 16:31:36;;;;;;;0.90;0.90;;;21.00;53.80;;;;;;5044089;28;20049;-56
2021/04/07 16:34:01;;;;;;;0.98;0.80;;;20.90;53.70;;;;;;5044389;28;20064;-54
2021/04/07 16:36:27;;;;;;;1.00;0.90;;;20.90;53.80;;;;;;5046515;28;20503;-55
2021/04/07 16:38:53;;;;;;;0.80;0.80;;;20.90;54.00;;;;;;5042622;28;20111;-53
2021/04/07 16:41:18;;;;;;;0.70;0.70;;;20.90;53.90;;;;;;5045568;28;20029;-51
2021/04/07 16:43:45;;;;;;;1.17;0.85;;;20.80;53.90;;;;;;5044360;28;20110;-56
2021/04/07 16:46:11;;;;;;;0.82;0.75;;;20.90;54.40;;;;;;5046765;28;20037;-55
2021/04/07 16:48:36;;;;;;;1.27;0.77;;;20.90;53.80;;;;;;5044060;28;20052;-58
2021/04/07 16:51:02;;;;;;;0.88;0.85;;;20.80;54.50;;;;;;5036364;28;20064;-51
2021/04/07 16:53:27;;;;;;;1.00;0.88;;;20.80;54.00;;;;;;5045300;28;20033;-56
2021/04/07 16:55:53;;;;;;;0.77;0.77;;;20.70;53.90;;;;;;5045982;28;20057;-60
2021/04/07 16:58:19;;;;;;;1.00;0.90;;;20.70;54.00;;;;;;5040824;28;20029;-57
2021/04/07 17:00:45;;;;;;;0.85;0.80;;;20.70;54.00;;;;;;5045172;28;20080;-60
2021/04/07 17:03:11;;;;;;;1.88;0.77;;;20.70;54.20;;;;;;5047223;28;20494;-46
2021/04/07 17:05:36;;;;;;;1.05;0.75;;;20.80;54.10;;;;;;5045866;28;20546;-59
2021/04/07 17:08:02;;;;;;;0.93;0.85;;;20.70;54.40;;;;;;5046425;28;20061;-59
2021/04/07 17:10:27;;;;;;;1.08;0.90;;;20.60;54.50;;;;;;5044777;28;20036;-57
2021/04/07 17:12:53;;;;;;;0.95;0.82;;;20.60;54.80;;;;;;5046078;28;20045;-52
2021/04/07 17:15:19;;;;;;;1.75;1.02;;;20.50;54.90;;;;;;5045993;28;20053;-59
2021/04/07 17:17:44;;;;;;;0.80;0.73;;;20.50;55.30;;;;;;5044949;28;20037;-53
2021/04/07 17:20:10;;;;;;;1.48;1.00;;;20.40;55.20;;;;;;5044307;28;20045;-59
2021/04/07 17:22:38;;;;;;;1.00;0.88;;;20.50;55.70;;;;;;5044818;28;20537;-59
2021/04/07 17:25:04;;;;;;;0.60;0.60;;;20.60;55.30;;;;;;5045206;28;20036;-58
2021/04/07 17:27:29;;;;;;;0.60;0.60;;;20.60;55.00;;;;;;5045900;28;20587;-59
2021/04/07 17:29:55;;;;;;;1.52;0.80;;;20.60;54.70;;;;;;5045859;28;20495;-57
2021/04/07 17:32:20;;;;;;;2.15;0.82;;;20.60;55.00;;;;;;5044705;28;20053;-59
2021/04/07 17:34:46;;;;;;;0.93;0.93;;;20.60;55.00;;;;;;5044249;28;20094;-59
2021/04/07 17:37:11;;;;;;;0.98;0.90;;;20.50;55.00;;;;;;5045613;28;20029;-59
2021/04/07 17:39:37;;;;;;;0.80;0.80;;;20.60;55.00;;;;;;5038657;28;20528;-59
2021/04/07 17:42:03;;;;;;;1.33;0.80;;;20.60;55.30;;;;;;5044975;28;20037;-59
2021/04/07 17:44:28;;;;;;;0.80;0.77;;;20.60;54.60;;;;;;5043434;28;20094;-59
2021/04/07 17:46:54;;;;;;;3.08;0.65;;;20.70;54.50;;;;;;5046326;28;20071;-60
2021/04/07 17:49:19;;;;;;;0.60;0.60;;;20.60;54.30;;;;;;5043510;28;20067;-54
2021/04/07 17:51:45;;;;;;;0.93;0.73;;;20.70;54.30;;;;;;5041786;28;20068;-57
2021/04/07 17:54:11;;;;;;;1.58;0.77;;;20.60;54.20;;;;;;5045688;28;20061;-57
2021/04/07 17:56:36;;;;;;;1.33;1.00;;;20.60;54.30;;;;;;5041476;28;20103;-54
2021/04/07 17:59:02;;;;;;;0.70;0.70;;;20.60;54.60;;;;;;5043420;28;20053;-57
2021/04/07 18:01:27;;;;;;;1.50;0.73;;;20.70;55.00;;;;;;5041803;28;20037;-54
2021/04/07 18:03:53;;;;;;;1.02;0.90;;;20.60;54.50;;;;;;5040500;28;20049;-52
2021/04/07 18:06:19;;;;;;;0.50;0.50;;;20.60;55.30;;;;;;4695281;28;10000170;-48
2021/04/07 18:08:44;;;;;;;1.45;0.60;;;20.60;54.40;;;;;;5042474;28;20469;-49
2021/04/07 18:11:10;;;;;;;2.70;0.70;;;20.60;54.40;;;;;;5037766;28;20056;-54
2021/04/07 18:13:35;;;;;;;1.08;0.80;;;20.60;54.60;;;;;;5031308;28;20602;-50
2021/04/07 18:16:01;;;;;;;1.17;0.50;;;20.60;54.40;;;;;;5029945;28;20037;-55
2021/04/07 18:18:27;;;;;;;1.08;0.80;;;20.70;54.40;;;;;;5030691;28;20922;-49
2021/04/07 18:20:52;;;;;;;2.05;0.75;;;20.80;54.30;;;;;;5034666;28;20067;-53
2021/04/07 18:23:19;;;;;;;1.08;0.98;;;20.60;54.40;;;;;;5037331;28;20045;-55
2021/04/07 18:25:45;;;;;;;0.95;0.85;;;20.60;54.80;;;;;;5042356;28;20145;-46
2021/04/07 18:28:10;;;;;;;0.80;0.73;;;20.50;54.80;;;;;;5041623;28;20119;-51
2021/04/07 18:30:43;;;;;;;3.33;0.80;;;20.60;55.00;;;;;;5041159;28;20135;-49
2021/04/07 18:33:13;;;;;;;2.00;1.15;;;20.60;55.20;;;;;;5041675;28;20041;-53
2021/04/07 18:35:39;;;;;;;1.80;1.13;;;20.80;54.30;;;;;;5044923;28;20054;-60
2021/04/07 18:38:04;;;;;;;1.25;1.15;;;20.80;54.40;;;;;;5044600;28;20136;-58
2021/04/07 18:40:31;;;;;;;2.97;1.17;;;20.80;54.30;;;;;;5043759;28;20151;-57